sensor_id;sensor_type;location;lat;lon;timestamp;pressure;altitude;pressure_sealevel;temperature;humidity
8318;BME280;4196;48.926;8.964;2022-08-05T00:01:19;98543.75;;;21.61;68.63
8318;BME280;4196;48.926;8.964;2022-08-05T00:04:13;98526.53;;;21.39;67.48
8318;BME280;4196;48.926;8.964;2022-08-05T00:07:00;98539.19;;;21.49;67.69
8318;BME280;4196;48.926;8.964;2022-08-05T00:10:06;98552.09;;;21.53;68.37
8318;BME280;4196;48.926;8.964;2022-08-05T00:12:54;98534.44;;;21.39;69.39
8318;BME280;4196;48.926;8.964;2022-08-05T00:15:42;98560.41;;;21.45;67.64
8318;BME280;4196;48.926;8.964;2022-08-05T00:18:46;98568.00;;;21.52;68.91
8318;BME280;4196;48.926;8.964;2022-08-05T00:21:33;98563.47;;;21.54;68.70
8318;BME280;4196;48.926;8.964;2022-08-05T00:24:21;98556.56;;;21.35;67.72
8318;BME280;4196;48.926;8.964;2022-08-05T00:27:16;98573.84;;;21.41;64.57
8318;BME280;4196;48.926;8.964;2022-08-05T00:30:03;98579.22;;;21.39;64.95
8318;BME280;4196;48.926;8.964;2022-08-05T00:32:56;98596.59;;;21.42;67.38
8318;BME280;4196;48.926;8.964;2022-08-05T00:35:43;98608.19;;;21.39;65.74
8318;BME280;4196;48.926;8.964;2022-08-05T00:38:50;98610.56;;;21.60;61.06
8318;BME280;4196;48.926;8.964;2022-08-05T00:41:36;98586.44;;;21.52;58.53
8318;BME280;4196;48.926;8.964;2022-08-05T00:44:41;98583.19;;;21.78;55.03
8318;BME280;4196;48.926;8.964;2022-08-05T00:47:28;98590.47;;;22.05;54.37
8318;BME280;4196;48.926;8.964;2022-08-05T00:50:35;98574.91;;;22.16;54.99
8318;BME280;4196;48.926;8.964;2022-08-05T00:53:22;98618.19;;;22.43;55.51
8318;BME280;4196;48.926;8.964;2022-08-05T00:56:28;98602.00;;;22.64;56.44
8318;BME280;4196;48.926;8.964;2022-08-05T00:59:15;98601.03;;;22.81;57.36
8318;BME280;4196;48.926;8.964;2022-08-05T01:02:02;98609.84;;;22.96;57.55
8318;BME280;4196;48.926;8.964;2022-08-05T01:04:49;98608.25;;;23.07;58.03
8318;BME280;4196;48.926;8.964;2022-08-05T01:07:36;98579.84;;;23.11;58.63
8318;BME280;4196;48.926;8.964;2022-08-05T01:10:48;98598.34;;;23.39;58.78
8318;BME280;4196;48.926;8.964;2022-08-05T01:13:50;98620.31;;;23.69;58.55
8318;BME280;4196;48.926;8.964;2022-08-05T01:19:52;98603.22;;;23.74;59.08
8318;BME280;4196;48.926;8.964;2022-08-05T01:26:42;98602.97;;;23.92;59.35
8318;BME280;4196;48.926;8.964;2022-08-05T01:29:37;98646.38;;;24.16;59.23
8318;BME280;4196;48.926;8.964;2022-08-05T01:32:32;98588.75;;;23.80;59.31
8318;BME280;4196;48.926;8.964;2022-08-05T01:35:24;98645.16;;;24.07;59.55
8318;BME280;4196;48.926;8.964;2022-08-05T01:38:34;98625.84;;;23.93;60.12
8318;BME280;4196;48.926;8.964;2022-08-05T01:41:21;98607.50;;;23.90;60.06
8318;BME280;4196;48.926;8.964;2022-08-05T01:44:12;98625.44;;;23.99;60.16
8318;BME280;4196;48.926;8.964;2022-08-05T01:47:01;98631.44;;;23.88;60.51
8318;BME280;4196;48.926;8.964;2022-08-05T01:49:52;98633.72;;;23.80;61.49
8318;BME280;4196;48.926;8.964;2022-08-05T01:52:49;98612.00;;;23.60;61.78
8318;BME280;4196;48.926;8.964;2022-08-05T01:55:39;98647.72;;;23.68;62.56
8318;BME280;4196;48.926;8.964;2022-08-05T01:58:29;98614.38;;;23.36;63.46
8318;BME280;4196;48.926;8.964;2022-08-05T02:01:36;98634.13;;;23.31;64.87
8318;BME280;4196;48.926;8.964;2022-08-05T02:04:27;98656.34;;;23.27;66.16
8318;BME280;4196;48.926;8.964;2022-08-05T02:07:16;98666.06;;;23.26;65.95
8318;BME280;4196;48.926;8.964;2022-08-05T02:10:08;98644.47;;;23.05;66.03
8318;BME280;4196;48.926;8.964;2022-08-05T02:13:08;98653.41;;;23.03;65.97
8318;BME280;4196;48.926;8.964;2022-08-05T02:16:05;98658.88;;;23.00;66.89
8318;BME280;4196;48.926;8.964;2022-08-05T02:19:13;98636.19;;;22.81;67.94
8318;BME280;4196;48.926;8.964;2022-08-05T02:22:23;98653.16;;;22.77;69.14
8318;BME280;4196;48.926;8.964;2022-08-05T02:25:17;98634.22;;;22.55;71.36
8318;BME280;4196;48.926;8.964;2022-08-05T02:28:07;98658.16;;;22.52;72.77
8318;BME280;4196;48.926;8.964;2022-08-05T02:31:00;98643.50;;;22.32;73.72
8318;BME280;4196;48.926;8.964;2022-08-05T02:33:51;98620.25;;;22.07;73.59
8318;BME280;4196;48.926;8.964;2022-08-05T02:36:48;98643.38;;;22.02;73.99
8318;BME280;4196;48.926;8.964;2022-08-05T02:39:39;98662.94;;;21.98;74.53
8318;BME280;4196;48.926;8.964;2022-08-05T02:42:33;98676.75;;;22.03;75.80
8318;BME280;4196;48.926;8.964;2022-08-05T02:45:22;98668.31;;;21.80;76.90
8318;BME280;4196;48.926;8.964;2022-08-05T02:48:11;98656.72;;;21.67;76.87
8318;BME280;4196;48.926;8.964;2022-08-05T02:51:02;98697.31;;;21.80;78.32
8318;BME280;4196;48.926;8.964;2022-08-05T02:53:49;98689.50;;;21.61;78.92
8318;BME280;4196;48.926;8.964;2022-08-05T02:56:43;98692.09;;;21.63;78.37
8318;BME280;4196;48.926;8.964;2022-08-05T02:59:31;98696.25;;;21.67;78.86
8318;BME280;4196;48.926;8.964;2022-08-05T03:02:36;98698.28;;;21.62;79.66
8318;BME280;4196;48.926;8.964;2022-08-05T03:05:24;98663.16;;;21.45;79.50
8318;BME280;4196;48.926;8.964;2022-08-05T03:08:31;98681.59;;;21.61;78.89
8318;BME280;4196;48.926;8.964;2022-08-05T03:11:22;98690.66;;;21.73;78.95
8318;BME280;4196;48.926;8.964;2022-08-05T03:14:30;98694.84;;;21.77;80.29
8318;BME280;4196;48.926;8.964;2022-08-05T03:17:17;98654.59;;;21.58;79.72
8318;BME280;4196;48.926;8.964;2022-08-05T03:20:07;98672.97;;;21.75;80.83
8318;BME280;4196;48.926;8.964;2022-08-05T03:22:55;98680.44;;;21.67;81.85
8318;BME280;4196;48.926;8.964;2022-08-05T03:25:43;98689.28;;;21.66;81.49
8318;BME280;4196;48.926;8.964;2022-08-05T03:28:49;98698.38;;;21.60;81.94
8318;BME280;4196;48.926;8.964;2022-08-05T03:31:37;98666.13;;;21.39;83.21
8318;BME280;4196;48.926;8.964;2022-08-05T03:34:44;98678.19;;;21.43;84.27
8318;BME280;4196;48.926;8.964;2022-08-05T03:37:36;98663.84;;;21.32;84.13
8318;BME280;4196;48.926;8.964;2022-08-05T03:40:32;98643.03;;;21.10;84.27
8318;BME280;4196;48.926;8.964;2022-08-05T03:43:21;98677.34;;;21.26;84.96
8318;BME280;4196;48.926;8.964;2022-08-05T03:46:29;98627.53;;;20.88;84.24
8318;BME280;4196;48.926;8.964;2022-08-05T03:49:18;98666.13;;;21.05;84.83
8318;BME280;4196;48.926;8.964;2022-08-05T03:52:11;98630.72;;;20.77;85.31
8318;BME280;4196;48.926;8.964;2022-08-05T03:55:31;98635.06;;;20.78;85.82
8318;BME280;4196;48.926;8.964;2022-08-05T03:58:41;98666.94;;;20.89;86.16
8318;BME280;4196;48.926;8.964;2022-08-05T04:01:30;98681.78;;;20.90;86.57
8318;BME280;4196;48.926;8.964;2022-08-05T04:04:19;98686.44;;;20.85;86.44
8318;BME280;4196;48.926;8.964;2022-08-05T04:07:07;98667.56;;;20.77;84.76
8318;BME280;4196;48.926;8.964;2022-08-05T04:09:55;98684.75;;;20.84;84.24
8318;BME280;4196;48.926;8.964;2022-08-05T04:12:47;98737.81;;;21.10;85.31
8318;BME280;4196;48.926;8.964;2022-08-05T04:15:33;98754.88;;;21.20;84.42
8318;BME280;4196;48.926;8.964;2022-08-05T04:18:22;98761.69;;;21.24;83.62
8318;BME280;4196;48.926;8.964;2022-08-05T04:21:12;98743.28;;;21.07;83.41
8318;BME280;4196;48.926;8.964;2022-08-05T04:24:18;98763.88;;;21.33;81.93
8318;BME280;4196;48.926;8.964;2022-08-05T04:27:08;98718.78;;;21.05;81.63
8318;BME280;4196;48.926;8.964;2022-08-05T04:29:54;98758.75;;;21.30;81.64
8318;BME280;4196;48.926;8.964;2022-08-05T04:32:41;98774.53;;;21.30;81.77
8318;BME280;4196;48.926;8.964;2022-08-05T04:35:28;98810.75;;;21.44;82.63
8318;BME280;4196;48.926;8.964;2022-08-05T04:38:37;98806.03;;;21.33;82.46
8318;BME280;4196;48.926;8.964;2022-08-05T04:41:25;98823.38;;;21.37;83.16
8318;BME280;4196;48.926;8.964;2022-08-05T04:44:22;98823.28;;;21.39;82.78
8318;BME280;4196;48.926;8.964;2022-08-05T04:47:15;98826.63;;;21.42;83.15
8318;BME280;4196;48.926;8.964;2022-08-05T04:50:05;98832.53;;;21.48;82.45
8318;BME280;4196;48.926;8.964;2022-08-05T04:52:56;98817.31;;;21.35;83.29
8318;BME280;4196;48.926;8.964;2022-08-05T04:55:44;98863.28;;;21.47;84.90
8318;BME280;4196;48.926;8.964;2022-08-05T04:58:50;98911.91;;;21.76;82.16
8318;BME280;4196;48.926;8.964;2022-08-05T05:01:37;98910.88;;;21.96;79.52
8318;BME280;4196;48.926;8.964;2022-08-05T05:04:44;98921.19;;;22.18;79.08
8318;BME280;4196;48.926;8.964;2022-08-05T05:07:36;98918.50;;;22.69;77.18
8318;BME280;4196;48.926;8.964;2022-08-05T05:10:33;98942.34;;;23.92;70.05
8318;BME280;4196;48.926;8.964;2022-08-05T05:13:23;98934.22;;;24.82;65.66
8318;BME280;4196;48.926;8.964;2022-08-05T05:16:09;98922.72;;;26.05;60.54
8318;BME280;4196;48.926;8.964;2022-08-05T05:18:57;98939.78;;;26.90;56.46
8318;BME280;4196;48.926;8.964;2022-08-05T05:22:03;98921.72;;;26.69;57.10
8318;BME280;4196;48.926;8.964;2022-08-05T05:25:10;98930.56;;;26.32;61.51
8318;BME280;4196;48.926;8.964;2022-08-05T05:28:02;98930.16;;;26.12;64.09
8318;BME280;4196;48.926;8.964;2022-08-05T05:30:49;98940.16;;;26.60;61.11
8318;BME280;4196;48.926;8.964;2022-08-05T05:33:36;98947.44;;;27.31;59.01
8318;BME280;4196;48.926;8.964;2022-08-05T05:36:42;98932.19;;;27.57;56.84
8318;BME280;4196;48.926;8.964;2022-08-05T05:39:32;98920.69;;;27.21;56.87
8318;BME280;4196;48.926;8.964;2022-08-05T05:42:21;98944.91;;;26.67;59.80
8318;BME280;4196;48.926;8.964;2022-08-05T05:45:09;98937.81;;;26.55;60.26
8318;BME280;4196;48.926;8.964;2022-08-05T05:47:59;98955.44;;;26.31;61.45
8318;BME280;4196;48.926;8.964;2022-08-05T05:50:53;98954.22;;;25.69;63.74
8318;BME280;4196;48.926;8.964;2022-08-05T05:53:39;98957.06;;;25.26;65.47
8318;BME280;4196;48.926;8.964;2022-08-05T05:56:44;98956.06;;;25.42;64.51
8318;BME280;4196;48.926;8.964;2022-08-05T05:59:32;98915.38;;;25.28;64.82
8318;BME280;4196;48.926;8.964;2022-08-05T06:02:25;98961.97;;;25.60;64.27
8318;BME280;4196;48.926;8.964;2022-08-05T06:05:22;98970.56;;;25.63;64.82
8318;BME280;4196;48.926;8.964;2022-08-05T06:08:09;98947.09;;;25.57;65.00
8318;BME280;4196;48.926;8.964;2022-08-05T06:10:56;98926.13;;;25.67;63.06
8318;BME280;4196;48.926;8.964;2022-08-05T06:13:42;98917.94;;;25.97;61.90
8318;BME280;4196;48.926;8.964;2022-08-05T06:16:39;98915.69;;;25.91;61.10
8318;BME280;4196;48.926;8.964;2022-08-05T06:19:29;98923.44;;;26.07;61.87
8318;BME280;4196;48.926;8.964;2022-08-05T06:22:26;98922.94;;;26.14;60.04
8318;BME280;4196;48.926;8.964;2022-08-05T06:25:13;98888.53;;;26.25;58.99
8318;BME280;4196;48.926;8.964;2022-08-05T06:28:19;98904.22;;;26.41;57.64
8318;BME280;4196;48.926;8.964;2022-08-05T06:31:07;98947.38;;;26.70;57.42
8318;BME280;4196;48.926;8.964;2022-08-05T06:34:03;98936.69;;;26.83;56.98
8318;BME280;4196;48.926;8.964;2022-08-05T06:36:53;98941.97;;;27.21;56.13
8318;BME280;4196;48.926;8.964;2022-08-05T06:39:43;98968.25;;;27.37;53.94
8318;BME280;4196;48.926;8.964;2022-08-05T06:42:30;98954.06;;;27.26;54.31
8318;BME280;4196;48.926;8.964;2022-08-05T06:45:17;98929.31;;;27.12;53.35
8318;BME280;4196;48.926;8.964;2022-08-05T06:48:06;98965.13;;;27.19;54.74
8318;BME280;4196;48.926;8.964;2022-08-05T06:51:12;98978.03;;;27.00;53.96
8318;BME280;4196;48.926;8.964;2022-08-05T06:54:15;98955.88;;;26.63;54.65
8318;BME280;4196;48.926;8.964;2022-08-05T06:57:04;98956.09;;;26.47;55.35
8318;BME280;4196;48.926;8.964;2022-08-05T07:00:11;98960.22;;;26.51;55.57
8318;BME280;4196;48.926;8.964;2022-08-05T07:02:57;98964.59;;;26.52;55.42
8318;BME280;4196;48.926;8.964;2022-08-05T07:05:44;98983.63;;;26.59;56.06
8318;BME280;4196;48.926;8.964;2022-08-05T07:08:31;98978.81;;;26.64;55.60
8318;BME280;4196;48.926;8.964;2022-08-05T07:11:18;98989.00;;;26.83;55.77
8318;BME280;4196;48.926;8.964;2022-08-05T07:14:10;98982.56;;;27.11;54.91
8318;BME280;4196;48.926;8.964;2022-08-05T07:17:19;98989.47;;;27.26;54.51
8318;BME280;4196;48.926;8.964;2022-08-05T07:20:26;99004.72;;;27.11;53.08
8318;BME280;4196;48.926;8.964;2022-08-05T07:23:19;99007.44;;;27.23;54.10
8318;BME280;4196;48.926;8.964;2022-08-05T07:26:14;98984.09;;;26.89;54.18
8318;BME280;4196;48.926;8.964;2022-08-05T07:29:08;99004.69;;;26.98;54.29
8318;BME280;4196;48.926;8.964;2022-08-05T07:31:55;99022.25;;;27.01;53.67
8318;BME280;4196;48.926;8.964;2022-08-05T07:34:41;99013.44;;;26.75;54.60
8318;BME280;4196;48.926;8.964;2022-08-05T07:37:28;99017.91;;;27.00;52.10
8318;BME280;4196;48.926;8.964;2022-08-05T07:40:23;99027.75;;;26.98;54.12
8318;BME280;4196;48.926;8.964;2022-08-05T07:43:18;99022.66;;;27.20;53.48
8318;BME280;4196;48.926;8.964;2022-08-05T07:46:06;99014.16;;;27.15;52.92
8318;BME280;4196;48.926;8.964;2022-08-05T07:49:10;98987.94;;;26.72;53.77
8318;BME280;4196;48.926;8.964;2022-08-05T07:51:57;99001.31;;;26.84;51.96
8318;BME280;4196;48.926;8.964;2022-08-05T07:54:45;99007.41;;;26.60;53.39
8318;BME280;4196;48.926;8.964;2022-08-05T07:57:35;99020.25;;;26.54;54.60
8318;BME280;4196;48.926;8.964;2022-08-05T08:00:42;99020.25;;;26.66;53.71
8318;BME280;4196;48.926;8.964;2022-08-05T08:03:30;99014.94;;;26.66;53.71
8318;BME280;4196;48.926;8.964;2022-08-05T08:06:30;99003.06;;;26.59;54.50
8318;BME280;4196;48.926;8.964;2022-08-05T08:09:17;98999.53;;;26.71;53.07
8318;BME280;4196;48.926;8.964;2022-08-05T08:12:06;98970.34;;;26.59;53.22
8318;BME280;4196;48.926;8.964;2022-08-05T08:15:12;99014.69;;;26.44;52.75
8318;BME280;4196;48.926;8.964;2022-08-05T08:18:01;99009.19;;;26.47;52.66
8318;BME280;4196;48.926;8.964;2022-08-05T08:20:53;98972.09;;;26.20;54.27
8318;BME280;4196;48.926;8.964;2022-08-05T08:23:48;99012.28;;;26.66;52.62
8318;BME280;4196;48.926;8.964;2022-08-05T08:26:50;99004.63;;;26.74;52.01
8318;BME280;4196;48.926;8.964;2022-08-05T08:29:37;98983.44;;;26.98;51.44
8318;BME280;4196;48.926;8.964;2022-08-05T08:32:44;98977.09;;;27.38;48.94
8318;BME280;4196;48.926;8.964;2022-08-05T08:35:31;98954.53;;;27.43;49.45
8318;BME280;4196;48.926;8.964;2022-08-05T08:38:26;98957.13;;;27.56;49.38
8318;BME280;4196;48.926;8.964;2022-08-05T08:41:24;98945.81;;;27.65;48.30
8318;BME280;4196;48.926;8.964;2022-08-05T08:44:32;98939.88;;;27.62;48.05
8318;BME280;4196;48.926;8.964;2022-08-05T08:47:41;98952.34;;;27.73;46.86
8318;BME280;4196;48.926;8.964;2022-08-05T08:50:50;98939.69;;;27.52;47.58
8318;BME280;4196;48.926;8.964;2022-08-05T08:53:56;98958.53;;;27.49;47.34
8318;BME280;4196;48.926;8.964;2022-08-05T08:56:46;98944.38;;;27.49;47.72
8318;BME280;4196;48.926;8.964;2022-08-05T08:59:34;98940.31;;;27.56;47.01
8318;BME280;4196;48.926;8.964;2022-08-05T09:02:22;98931.84;;;27.51;46.42
8318;BME280;4196;48.926;8.964;2022-08-05T09:05:12;98892.25;;;27.46;47.14
8318;BME280;4196;48.926;8.964;2022-08-05T09:08:03;98905.91;;;27.65;47.15
8318;BME280;4196;48.926;8.964;2022-08-05T09:10:50;98911.16;;;27.78;46.37
8318;BME280;4196;48.926;8.964;2022-08-05T09:13:38;98924.75;;;27.98;47.23
8318;BME280;4196;48.926;8.964;2022-08-05T09:16:44;98911.59;;;28.07;45.95
8318;BME280;4196;48.926;8.964;2022-08-05T09:19:35;98921.84;;;28.01;45.58
8318;BME280;4196;48.926;8.964;2022-08-05T09:23:07;98916.44;;;28.02;45.80
8318;BME280;4196;48.926;8.964;2022-08-05T09:26:13;98918.16;;;28.26;47.75
8318;BME280;4196;48.926;8.964;2022-08-05T09:29:07;98898.91;;;28.33;47.93
8318;BME280;4196;48.926;8.964;2022-08-05T09:32:04;98880.91;;;28.48;47.88
8318;BME280;4196;48.926;8.964;2022-08-05T09:35:16;98901.97;;;28.74;45.73
8318;BME280;4196;48.926;8.964;2022-08-05T09:38:12;98895.56;;;28.65;47.68
8318;BME280;4196;48.926;8.964;2022-08-05T09:41:12;98909.47;;;28.91;47.43
8318;BME280;4196;48.926;8.964;2022-08-05T09:44:01;98905.34;;;28.98;46.28
8318;BME280;4196;48.926;8.964;2022-08-05T09:47:06;98889.34;;;29.09;43.79
8318;BME280;4196;48.926;8.964;2022-08-05T09:49:57;98879.38;;;29.11;43.24
8318;BME280;4196;48.926;8.964;2022-08-05T09:52:56;98870.19;;;29.04;42.65
8318;BME280;4196;48.926;8.964;2022-08-05T09:55:43;98906.34;;;29.29;43.23
8318;BME280;4196;48.926;8.964;2022-08-05T09:59:02;98888.66;;;28.62;42.17
8318;BME280;4196;48.926;8.964;2022-08-05T10:01:49;98878.19;;;28.82;42.50
8318;BME280;4196;48.926;8.964;2022-08-05T10:04:43;98883.75;;;28.90;43.35
8318;BME280;4196;48.926;8.964;2022-08-05T10:10:49;98879.66;;;28.75;43.04
8318;BME280;4196;48.926;8.964;2022-08-05T10:13:40;98905.69;;;29.05;42.94
8318;BME280;4196;48.926;8.964;2022-08-05T10:16:35;98907.72;;;29.12;42.52
8318;BME280;4196;48.926;8.964;2022-08-05T10:19:27;98877.81;;;29.09;42.94
8318;BME280;4196;48.926;8.964;2022-08-05T10:22:33;98878.91;;;28.95;42.05
8318;BME280;4196;48.926;8.964;2022-08-05T10:25:24;98883.13;;;28.98;41.72
8318;BME280;4196;48.926;8.964;2022-08-05T10:28:12;98902.97;;;29.16;40.70
8318;BME280;4196;48.926;8.964;2022-08-05T10:31:16;98892.16;;;29.29;40.80
8318;BME280;4196;48.926;8.964;2022-08-05T10:34:23;98899.25;;;29.51;39.97
8318;BME280;4196;48.926;8.964;2022-08-05T10:37:11;98905.28;;;29.53;39.11
8318;BME280;4196;48.926;8.964;2022-08-05T10:40:00;98904.69;;;29.49;39.65
8318;BME280;4196;48.926;8.964;2022-08-05T10:43:46;98890.75;;;29.57;39.66
8318;BME280;4196;48.926;8.964;2022-08-05T10:49:29;98891.81;;;29.87;38.42
8318;BME280;4196;48.926;8.964;2022-08-05T10:56:01;98882.03;;;29.97;39.31
8318;BME280;4196;48.926;8.964;2022-08-05T10:59:06;98872.34;;;30.17;38.06
8318;BME280;4196;48.926;8.964;2022-08-05T11:02:13;98867.63;;;30.30;37.93
8318;BME280;4196;48.926;8.964;2022-08-05T11:05:20;98898.25;;;30.56;36.88
8318;BME280;4196;48.926;8.964;2022-08-05T11:08:09;98898.44;;;30.65;36.90
8318;BME280;4196;48.926;8.964;2022-08-05T11:11:35;98878.16;;;30.62;37.47
8318;BME280;4196;48.926;8.964;2022-08-05T11:14:38;98884.50;;;30.71;37.56
8318;BME280;4196;48.926;8.964;2022-08-05T11:17:50;98910.38;;;31.01;35.84
8318;BME280;4196;48.926;8.964;2022-08-05T11:20:47;98875.19;;;31.06;35.83
8318;BME280;4196;48.926;8.964;2022-08-05T11:27:27;98898.00;;;31.10;35.33
8318;BME280;4196;48.926;8.964;2022-08-05T11:36:47;98896.66;;;31.35;34.30
8318;BME280;4196;48.926;8.964;2022-08-05T11:39:51;98899.00;;;31.28;33.67
8318;BME280;4196;48.926;8.964;2022-08-05T11:42:48;98879.16;;;31.21;35.18
8318;BME280;4196;48.926;8.964;2022-08-05T11:45:46;98890.47;;;31.34;34.69
8318;BME280;4196;48.926;8.964;2022-08-05T11:48:53;98887.09;;;31.42;34.75
8318;BME280;4196;48.926;8.964;2022-08-05T11:51:41;98869.03;;;31.24;34.26
8318;BME280;4196;48.926;8.964;2022-08-05T11:54:34;98866.66;;;31.50;34.66
8318;BME280;4196;48.926;8.964;2022-08-05T11:57:30;98857.78;;;31.60;35.06
8318;BME280;4196;48.926;8.964;2022-08-05T12:00:36;98859.19;;;31.64;34.84
8318;BME280;4196;48.926;8.964;2022-08-05T12:03:26;98850.59;;;31.50;34.00
8318;BME280;4196;48.926;8.964;2022-08-05T12:06:26;98859.44;;;31.80;33.93
8318;BME280;4196;48.926;8.964;2022-08-05T12:09:20;98855.22;;;31.87;33.82
8318;BME280;4196;48.926;8.964;2022-08-05T12:12:28;98854.22;;;31.88;33.89
8318;BME280;4196;48.926;8.964;2022-08-05T12:15:20;98879.41;;;32.15;32.75
8318;BME280;4196;48.926;8.964;2022-08-05T12:18:33;98846.34;;;31.87;34.11
8318;BME280;4196;48.926;8.964;2022-08-05T12:21:27;98857.44;;;32.11;33.22
8318;BME280;4196;48.926;8.964;2022-08-05T12:24:19;98855.94;;;31.60;32.61
8318;BME280;4196;48.926;8.964;2022-08-05T12:27:14;98855.63;;;31.92;32.91
8318;BME280;4196;48.926;8.964;2022-08-05T12:30:10;98853.69;;;31.75;33.18
8318;BME280;4196;48.926;8.964;2022-08-05T12:33:00;98857.19;;;31.66;33.19
8318;BME280;4196;48.926;8.964;2022-08-05T12:35:54;98856.94;;;31.49;34.30
8318;BME280;4196;48.926;8.964;2022-08-05T12:38:41;98835.22;;;31.14;33.65
8318;BME280;4196;48.926;8.964;2022-08-05T12:41:30;98860.97;;;31.15;34.17
8318;BME280;4196;48.926;8.964;2022-08-05T12:44:20;98856.88;;;31.11;34.30
8318;BME280;4196;48.926;8.964;2022-08-05T12:47:27;98843.72;;;31.38;34.06
8318;BME280;4196;48.926;8.964;2022-08-05T12:50:16;98854.38;;;31.58;34.26
8318;BME280;4196;48.926;8.964;2022-08-05T12:53:05;98853.00;;;31.63;34.81
8318;BME280;4196;48.926;8.964;2022-08-05T12:55:52;98834.41;;;31.52;35.12
8318;BME280;4196;48.926;8.964;2022-08-05T12:58:41;98841.41;;;31.24;35.14
8318;BME280;4196;48.926;8.964;2022-08-05T13:01:43;98848.31;;;31.56;33.80
8318;BME280;4196;48.926;8.964;2022-08-05T13:04:50;98828.47;;;31.68;35.44
8318;BME280;4196;48.926;8.964;2022-08-05T13:07:41;98850.13;;;32.04;35.10
8318;BME280;4196;48.926;8.964;2022-08-05T13:10:45;98857.34;;;32.31;34.38
8318;BME280;4196;48.926;8.964;2022-08-05T13:13:37;98839.13;;;32.34;33.31
8318;BME280;4196;48.926;8.964;2022-08-05T13:16:55;98868.91;;;32.41;34.79
8318;BME280;4196;48.926;8.964;2022-08-05T13:20:06;98858.03;;;32.42;33.38
8318;BME280;4196;48.926;8.964;2022-08-05T13:22:53;98853.50;;;31.76;34.71
8318;BME280;4196;48.926;8.964;2022-08-05T13:25:43;98862.56;;;31.46;34.58
8318;BME280;4196;48.926;8.964;2022-08-05T13:28:45;98867.38;;;31.52;35.16
8318;BME280;4196;48.926;8.964;2022-08-05T13:31:32;98843.28;;;31.52;34.30
8318;BME280;4196;48.926;8.964;2022-08-05T13:34:38;98846.47;;;31.08;35.32
8318;BME280;4196;48.926;8.964;2022-08-05T13:37:26;98844.25;;;31.32;35.99
8318;BME280;4196;48.926;8.964;2022-08-05T13:40:20;98864.22;;;31.09;35.91
8318;BME280;4196;48.926;8.964;2022-08-05T13:43:26;98857.19;;;31.17;36.77
8318;BME280;4196;48.926;8.964;2022-08-05T13:46:33;98839.44;;;31.26;36.91
8318;BME280;4196;48.926;8.964;2022-08-05T13:49:39;98856.91;;;31.69;35.70
8318;BME280;4196;48.926;8.964;2022-08-05T13:52:31;98856.06;;;31.78;35.46
8318;BME280;4196;48.926;8.964;2022-08-05T13:55:21;98847.06;;;31.60;35.29
8318;BME280;4196;48.926;8.964;2022-08-05T13:58:27;98862.41;;;31.58;36.06
8318;BME280;4196;48.926;8.964;2022-08-05T14:01:16;98861.16;;;31.23;35.81
8318;BME280;4196;48.926;8.964;2022-08-05T14:04:03;98840.03;;;31.20;35.53
8318;BME280;4196;48.926;8.964;2022-08-05T14:07:12;98811.84;;;30.87;36.99
8318;BME280;4196;48.926;8.964;2022-08-05T14:10:19;98853.47;;;30.79;36.35
8318;BME280;4196;48.926;8.964;2022-08-05T14:13:16;98838.13;;;30.82;36.89
8318;BME280;4196;48.926;8.964;2022-08-05T14:16:03;98826.16;;;30.86;38.38
8318;BME280;4196;48.926;8.964;2022-08-05T14:18:56;98808.75;;;30.91;36.58
8318;BME280;4196;48.926;8.964;2022-08-05T14:21:49;98846.78;;;31.04;37.03
8318;BME280;4196;48.926;8.964;2022-08-05T14:24:56;98829.88;;;31.14;36.53
8318;BME280;4196;48.926;8.964;2022-08-05T14:27:42;98844.72;;;30.27;41.41
8318;BME280;4196;48.926;8.964;2022-08-05T14:30:32;98794.41;;;29.60;43.04
8318;BME280;4196;48.926;8.964;2022-08-05T14:33:21;98851.47;;;30.11;43.26
8318;BME280;4196;48.926;8.964;2022-08-05T14:36:09;98848.16;;;30.18;43.85
8318;BME280;4196;48.926;8.964;2022-08-05T14:38:55;98852.09;;;29.72;44.40
8318;BME280;4196;48.926;8.964;2022-08-05T14:41:43;98843.13;;;29.41;44.80
8318;BME280;4196;48.926;8.964;2022-08-05T14:44:49;98881.25;;;29.32;45.22
8318;BME280;4196;48.926;8.964;2022-08-05T14:47:35;98860.25;;;29.06;45.84
8318;BME280;4196;48.926;8.964;2022-08-05T14:50:42;98871.53;;;28.99;46.70
8318;BME280;4196;48.926;8.964;2022-08-05T14:53:29;98874.00;;;29.23;46.33
8318;BME280;4196;48.926;8.964;2022-08-05T14:56:16;98894.38;;;29.24;46.05
8318;BME280;4196;48.926;8.964;2022-08-05T14:59:08;98881.16;;;29.22;46.06
8318;BME280;4196;48.926;8.964;2022-08-05T15:01:54;98881.97;;;29.02;47.37
8318;BME280;4196;48.926;8.964;2022-08-05T15:04:41;98891.53;;;28.71;47.80
8318;BME280;4196;48.926;8.964;2022-08-05T15:07:30;98871.44;;;28.67;47.71
8318;BME280;4196;48.926;8.964;2022-08-05T15:10:36;98877.16;;;28.39;47.88
8318;BME280;4196;48.926;8.964;2022-08-05T15:13:24;98874.09;;;28.10;48.63
8318;BME280;4196;48.926;8.964;2022-08-05T15:16:30;98883.53;;;28.14;48.72
8318;BME280;4196;48.926;8.964;2022-08-05T15:19:17;98886.03;;;27.93;49.36
8318;BME280;4196;48.926;8.964;2022-08-05T15:22:09;98903.44;;;27.98;49.57
8318;BME280;4196;48.926;8.964;2022-08-05T15:24:55;98894.84;;;27.94;49.63
8318;BME280;4196;48.926;8.964;2022-08-05T15:27:44;98897.53;;;27.94;49.39
8318;BME280;4196;48.926;8.964;2022-08-05T15:30:40;98909.31;;;28.14;49.17
8318;BME280;4196;48.926;8.964;2022-08-05T15:33:28;98912.06;;;28.12;49.01
8318;BME280;4196;48.926;8.964;2022-08-05T15:36:35;98920.88;;;28.02;48.89
8318;BME280;4196;48.926;8.964;2022-08-05T15:39:21;98937.53;;;27.57;50.18
8318;BME280;4196;48.926;8.964;2022-08-05T15:42:28;98929.06;;;27.52;50.34
8318;BME280;4196;48.926;8.964;2022-08-05T15:45:34;98894.25;;;27.31;50.80
8318;BME280;4196;48.926;8.964;2022-08-05T15:48:24;98902.97;;;27.33;50.69
8318;BME280;4196;48.926;8.964;2022-08-05T15:51:10;98896.44;;;27.13;50.41
8318;BME280;4196;48.926;8.964;2022-08-05T15:53:56;98945.84;;;27.53;50.40
8318;BME280;4196;48.926;8.964;2022-08-05T15:56:44;98937.53;;;27.57;51.01
8318;BME280;4196;48.926;8.964;2022-08-05T15:59:34;98942.41;;;27.63;48.65
8318;BME280;4196;48.926;8.964;2022-08-05T16:02:20;98904.75;;;27.57;49.14
8318;BME280;4196;48.926;8.964;2022-08-05T16:05:13;98924.84;;;27.85;49.44
8318;BME280;4196;48.926;8.964;2022-08-05T16:08:00;98916.81;;;27.74;49.16
8318;BME280;4196;48.926;8.964;2022-08-05T16:10:46;98935.16;;;27.65;49.68
8318;BME280;4196;48.926;8.964;2022-08-05T16:13:33;98941.03;;;27.58;49.83
8318;BME280;4196;48.926;8.964;2022-08-05T16:16:20;98934.03;;;27.33;49.84
8318;BME280;4196;48.926;8.964;2022-08-05T16:19:10;98960.16;;;27.39;50.39